sensor_id;sensor_type;location;lat;lon;timestamp;pressure;altitude;pressure_sealevel;temperature;humidity
10806;BME280;5455;53.224;6.000;2022-07-06T00:00:04;102458.28;;;16.62;78.48
10806;BME280;5455;53.224;6.000;2022-07-06T00:02:31;102456.84;;;16.68;78.37
10806;BME280;5455;53.224;6.000;2022-07-06T00:04:58;102452.47;;;16.67;78.12
10806;BME280;5455;53.224;6.000;2022-07-06T00:07:25;102452.47;;;16.67;78.72
10806;BME280;5455;53.224;6.000;2022-07-06T00:09:52;102458.28;;;16.62;79.56
10806;BME280;5455;53.224;6.000;2022-07-06T00:12:20;102449.16;;;16.61;79.06
10806;BME280;5455;53.224;6.000;2022-07-06T00:14:47;102449.50;;;16.60;79.27
10806;BME280;5455;53.224;6.000;2022-07-06T00:17:14;102453.19;;;16.64;79.18
10806;BME280;5455;53.224;6.000;2022-07-06T00:19:41;102444.53;;;16.69;78.85
10806;BME280;5455;53.224;6.000;2022-07-06T00:22:08;102448.16;;;16.69;78.73
10806;BME280;5455;53.224;6.000;2022-07-06T00:24:35;102448.97;;;16.70;78.80
10806;BME280;5455;53.224;6.000;2022-07-06T00:27:02;102454.63;;;16.73;77.97
10806;BME280;5455;53.224;6.000;2022-07-06T00:29:29;102457.84;;;16.75;78.12
10806;BME280;5455;53.224;6.000;2022-07-06T00:31:57;102451.16;;;16.80;77.62
10806;BME280;5455;53.224;6.000;2022-07-06T00:34:24;102451.63;;;16.82;77.34
10806;BME280;5455;53.224;6.000;2022-07-06T00:36:51;102453.69;;;16.85;77.31
10806;BME280;5455;53.224;6.000;2022-07-06T00:39:18;102445.34;;;16.85;76.73
10806;BME280;5455;53.224;6.000;2022-07-06T00:41:46;102443.81;;;16.87;75.96
10806;BME280;5455;53.224;6.000;2022-07-06T00:44:13;102449.81;;;16.89;76.21
10806;BME280;5455;53.224;6.000;2022-07-06T00:46:39;102454.66;;;16.92;75.79
10806;BME280;5455;53.224;6.000;2022-07-06T00:49:07;102461.75;;;16.90;76.10
10806;BME280;5455;53.224;6.000;2022-07-06T00:51:54;102450.09;;;16.84;76.65
10806;BME280;5455;53.224;6.000;2022-07-06T00:54:21;102451.25;;;16.83;76.49
10806;BME280;5455;53.224;6.000;2022-07-06T00:56:48;102449.19;;;16.80;76.74
10806;BME280;5455;53.224;6.000;2022-07-06T00:59:15;102449.28;;;16.84;76.95
10806;BME280;5455;53.224;6.000;2022-07-06T01:01:42;102454.56;;;16.89;76.83
10806;BME280;5455;53.224;6.000;2022-07-06T01:04:09;102450.91;;;16.85;76.67
10806;BME280;5455;53.224;6.000;2022-07-06T01:06:37;102457.22;;;16.82;76.80
10806;BME280;5455;53.224;6.000;2022-07-06T01:09:05;102462.41;;;16.83;77.18
10806;BME280;5455;53.224;6.000;2022-07-06T01:11:32;102449.72;;;16.86;76.94
10806;BME280;5455;53.224;6.000;2022-07-06T01:14:00;102459.69;;;16.87;76.97
10806;BME280;5455;53.224;6.000;2022-07-06T01:16:27;102454.84;;;16.84;77.44
10806;BME280;5455;53.224;6.000;2022-07-06T01:18:54;102446.06;;;16.82;78.24
10806;BME280;5455;53.224;6.000;2022-07-06T01:21:21;102453.31;;;16.86;78.55
10806;BME280;5455;53.224;6.000;2022-07-06T01:23:49;102449.09;;;16.77;79.50
10806;BME280;5455;53.224;6.000;2022-07-06T01:26:17;102456.69;;;16.76;79.46
10806;BME280;5455;53.224;6.000;2022-07-06T01:28:48;102452.28;;;16.75;79.35
10806;BME280;5455;53.224;6.000;2022-07-06T01:31:24;102454.25;;;16.75;79.28
10806;BME280;5455;53.224;6.000;2022-07-06T01:33:53;102450.22;;;16.72;79.21
10806;BME280;5455;53.224;6.000;2022-07-06T01:36:22;102448.22;;;16.73;79.41
10806;BME280;5455;53.224;6.000;2022-07-06T01:38:52;102454.16;;;16.71;79.29
10806;BME280;5455;53.224;6.000;2022-07-06T01:41:20;102447.72;;;16.67;79.46
10806;BME280;5455;53.224;6.000;2022-07-06T01:43:48;102457.50;;;16.61;79.51
10806;BME280;5455;53.224;6.000;2022-07-06T01:46:15;102450.84;;;16.66;79.80
10806;BME280;5455;53.224;6.000;2022-07-06T01:48:43;102460.00;;;16.66;79.47
10806;BME280;5455;53.224;6.000;2022-07-06T01:51:10;102450.22;;;16.72;79.41
10806;BME280;5455;53.224;6.000;2022-07-06T01:53:39;102443.09;;;16.75;79.55
10806;BME280;5455;53.224;6.000;2022-07-06T01:56:08;102448.22;;;16.73;78.91
10806;BME280;5455;53.224;6.000;2022-07-06T01:58:38;102449.06;;;16.73;78.87
10806;BME280;5455;53.224;6.000;2022-07-06T02:01:19;102452.19;;;16.72;78.51
10806;BME280;5455;53.224;6.000;2022-07-06T02:03:47;102444.97;;;16.71;78.72
10806;BME280;5455;53.224;6.000;2022-07-06T02:06:14;102454.88;;;16.68;78.47
10806;BME280;5455;53.224;6.000;2022-07-06T02:08:42;102444.38;;;16.62;78.61
10806;BME280;5455;53.224;6.000;2022-07-06T02:11:10;102451.84;;;16.58;78.64
10806;BME280;5455;53.224;6.000;2022-07-06T02:13:38;102454.69;;;16.45;78.50
10806;BME280;5455;53.224;6.000;2022-07-06T02:16:09;102447.69;;;16.36;78.69
10806;BME280;5455;53.224;6.000;2022-07-06T02:18:36;102447.50;;;16.29;78.13
10806;BME280;5455;53.224;6.000;2022-07-06T02:21:04;102447.34;;;16.22;77.62
10806;BME280;5455;53.224;6.000;2022-07-06T02:23:31;102446.31;;;16.14;77.23
10806;BME280;5455;53.224;6.000;2022-07-06T02:25:59;102444.16;;;16.08;76.65
10806;BME280;5455;53.224;6.000;2022-07-06T02:28:26;102440.75;;;15.98;76.29
10806;BME280;5455;53.224;6.000;2022-07-06T02:30:53;102444.41;;;15.87;76.03
10806;BME280;5455;53.224;6.000;2022-07-06T02:33:20;102440.25;;;15.81;76.49
10806;BME280;5455;53.224;6.000;2022-07-06T02:35:48;102443.66;;;15.74;76.23
10806;BME280;5455;53.224;6.000;2022-07-06T02:38:16;102448.66;;;15.69;76.01
10806;BME280;5455;53.224;6.000;2022-07-06T02:40:43;102445.00;;;15.65;76.41
10806;BME280;5455;53.224;6.000;2022-07-06T02:43:11;102439.31;;;15.61;75.97
10806;BME280;5455;53.224;6.000;2022-07-06T02:45:39;102441.19;;;15.57;76.07
10806;BME280;5455;53.224;6.000;2022-07-06T02:48:08;102439.25;;;15.45;76.14
10806;BME280;5455;53.224;6.000;2022-07-06T02:50:35;102440.66;;;15.39;76.92
10806;BME280;5455;53.224;6.000;2022-07-06T02:53:03;102445.91;;;15.29;77.08
10806;BME280;5455;53.224;6.000;2022-07-06T02:55:31;102448.47;;;15.22;77.76
10806;BME280;5455;53.224;6.000;2022-07-06T02:57:59;102441.88;;;15.14;78.63
10806;BME280;5455;53.224;6.000;2022-07-06T03:00:26;102440.16;;;15.10;78.96
10806;BME280;5455;53.224;6.000;2022-07-06T03:02:54;102440.31;;;15.01;79.83
10806;BME280;5455;53.224;6.000;2022-07-06T03:05:22;102427.25;;;14.89;80.33
10806;BME280;5455;53.224;6.000;2022-07-06T03:07:50;102440.66;;;14.75;81.02
10806;BME280;5455;53.224;6.000;2022-07-06T03:10:17;102431.19;;;14.64;81.63
10806;BME280;5455;53.224;6.000;2022-07-06T03:12:44;102430.88;;;14.54;82.53
10806;BME280;5455;53.224;6.000;2022-07-06T03:15:11;102432.13;;;14.44;83.18
10806;BME280;5455;53.224;6.000;2022-07-06T03:17:42;102433.03;;;14.36;83.97
10806;BME280;5455;53.224;6.000;2022-07-06T03:20:11;102435.56;;;14.29;84.57
10806;BME280;5455;53.224;6.000;2022-07-06T03:22:38;102439.72;;;14.23;85.06
10806;BME280;5455;53.224;6.000;2022-07-06T03:25:06;102440.03;;;14.21;85.71
10806;BME280;5455;53.224;6.000;2022-07-06T03:27:35;102435.19;;;14.18;85.97
10806;BME280;5455;53.224;6.000;2022-07-06T03:30:03;102440.63;;;14.15;86.08
10806;BME280;5455;53.224;6.000;2022-07-06T03:32:32;102432.19;;;14.11;86.45
10806;BME280;5455;53.224;6.000;2022-07-06T03:35:01;102439.94;;;14.06;86.36
10806;BME280;5455;53.224;6.000;2022-07-06T03:37:29;102433.31;;;13.98;87.05
10806;BME280;5455;53.224;6.000;2022-07-06T03:39:56;102433.53;;;13.93;87.53
10806;BME280;5455;53.224;6.000;2022-07-06T03:42:23;102441.84;;;13.93;87.83
10806;BME280;5455;53.224;6.000;2022-07-06T03:44:51;102437.00;;;13.90;87.96
10806;BME280;5455;53.224;6.000;2022-07-06T03:47:18;102437.44;;;13.92;88.53
10806;BME280;5455;53.224;6.000;2022-07-06T03:49:45;102439.66;;;13.99;88.08
10806;BME280;5455;53.224;6.000;2022-07-06T03:52:13;102445.69;;;14.01;87.79
10806;BME280;5455;53.224;6.000;2022-07-06T03:54:47;102439.81;;;14.02;87.41
10806;BME280;5455;53.224;6.000;2022-07-06T03:57:19;102444.31;;;14.07;87.31
10806;BME280;5455;53.224;6.000;2022-07-06T03:59:46;102446.50;;;14.13;87.37
10806;BME280;5455;53.224;6.000;2022-07-06T04:02:13;102447.22;;;14.22;87.11
10806;BME280;5455;53.224;6.000;2022-07-06T04:04:41;102453.63;;;14.35;86.90
10806;BME280;5455;53.224;6.000;2022-07-06T04:07:08;102453.41;;;14.52;86.46
10806;BME280;5455;53.224;6.000;2022-07-06T04:09:35;102451.56;;;14.68;85.70
10806;BME280;5455;53.224;6.000;2022-07-06T04:12:03;102449.13;;;14.79;84.50
10806;BME280;5455;53.224;6.000;2022-07-06T04:14:30;102455.34;;;14.88;83.98
10806;BME280;5455;53.224;6.000;2022-07-06T04:16:57;102452.94;;;14.99;83.79
10806;BME280;5455;53.224;6.000;2022-07-06T04:19:25;102454.38;;;15.08;82.96
10806;BME280;5455;53.224;6.000;2022-07-06T04:21:52;102458.09;;;15.12;82.55
10806;BME280;5455;53.224;6.000;2022-07-06T04:24:20;102461.44;;;15.18;82.50
10806;BME280;5455;53.224;6.000;2022-07-06T04:26:48;102466.78;;;15.23;82.07
10806;BME280;5455;53.224;6.000;2022-07-06T04:29:15;102464.56;;;15.28;82.14
10806;BME280;5455;53.224;6.000;2022-07-06T04:31:42;102463.47;;;15.33;81.94
10806;BME280;5455;53.224;6.000;2022-07-06T04:34:10;102471.50;;;15.34;82.11
10806;BME280;5455;53.224;6.000;2022-07-06T04:36:37;102475.06;;;15.35;81.99
10806;BME280;5455;53.224;6.000;2022-07-06T04:39:04;102478.34;;;15.25;81.79
10806;BME280;5455;53.224;6.000;2022-07-06T04:41:31;102469.56;;;15.23;82.86
10806;BME280;5455;53.224;6.000;2022-07-06T04:43:58;102475.13;;;15.23;82.79
10806;BME280;5455;53.224;6.000;2022-07-06T04:46:26;102471.25;;;15.27;83.69
10806;BME280;5455;53.224;6.000;2022-07-06T04:48:53;102473.31;;;15.42;84.50
10806;BME280;5455;53.224;6.000;2022-07-06T04:51:25;102467.38;;;15.56;85.29
10806;BME280;5455;53.224;6.000;2022-07-06T04:53:53;102474.16;;;15.71;85.61
10806;BME280;5455;53.224;6.000;2022-07-06T04:56:21;102462.63;;;15.84;86.25
10806;BME280;5455;53.224;6.000;2022-07-06T04:58:48;102464.06;;;15.94;87.10
10806;BME280;5455;53.224;6.000;2022-07-06T05:01:19;102469.38;;;15.99;86.87
10806;BME280;5455;53.224;6.000;2022-07-06T05:03:46;102470.50;;;16.10;87.38
10806;BME280;5455;53.224;6.000;2022-07-06T05:06:14;102474.44;;;16.25;87.42
10806;BME280;5455;53.224;6.000;2022-07-06T05:08:42;102465.44;;;16.31;87.54
10806;BME280;5455;53.224;6.000;2022-07-06T05:11:10;102464.94;;;16.41;87.50
10806;BME280;5455;53.224;6.000;2022-07-06T05:13:37;102465.94;;;16.49;87.81
10806;BME280;5455;53.224;6.000;2022-07-06T05:16:04;102465.13;;;16.64;87.70
10806;BME280;5455;53.224;6.000;2022-07-06T05:18:32;102462.16;;;16.73;86.63
10806;BME280;5455;53.224;6.000;2022-07-06T05:21:00;102471.25;;;16.70;86.31
10806;BME280;5455;53.224;6.000;2022-07-06T05:23:27;102466.75;;;16.65;85.97
10806;BME280;5455;53.224;6.000;2022-07-06T05:25:55;102472.31;;;16.65;86.62
10806;BME280;5455;53.224;6.000;2022-07-06T05:28:22;102465.28;;;16.71;86.77
10806;BME280;5455;53.224;6.000;2022-07-06T05:30:50;102457.25;;;16.85;87.00
10806;BME280;5455;53.224;6.000;2022-07-06T05:33:17;102458.97;;;16.90;87.55
10806;BME280;5455;53.224;6.000;2022-07-06T05:35:45;102470.00;;;17.02;88.40
10806;BME280;5455;53.224;6.000;2022-07-06T05:38:20;102471.81;;;17.29;89.37
10806;BME280;5455;53.224;6.000;2022-07-06T05:40:49;102478.66;;;17.51;86.83
10806;BME280;5455;53.224;6.000;2022-07-06T05:43:16;102475.22;;;17.57;85.82
10806;BME280;5455;53.224;6.000;2022-07-06T05:45:43;102472.00;;;17.75;86.28
10806;BME280;5455;53.224;6.000;2022-07-06T05:48:10;102470.66;;;17.88;84.82
10806;BME280;5455;53.224;6.000;2022-07-06T05:50:57;102474.75;;;17.94;82.68
10806;BME280;5455;53.224;6.000;2022-07-06T05:53:24;102468.97;;;18.02;81.94
10806;BME280;5455;53.224;6.000;2022-07-06T05:55:54;102473.50;;;18.10;80.46
10806;BME280;5455;53.224;6.000;2022-07-06T05:58:22;102470.38;;;18.15;79.53
10806;BME280;5455;53.224;6.000;2022-07-06T06:00:53;102479.47;;;18.32;79.88
10806;BME280;5455;53.224;6.000;2022-07-06T06:03:20;102473.81;;;18.51;78.30
10806;BME280;5455;53.224;6.000;2022-07-06T06:05:48;102477.44;;;18.51;75.91
10806;BME280;5455;53.224;6.000;2022-07-06T06:08:17;102483.66;;;18.45;71.52
10806;BME280;5455;53.224;6.000;2022-07-06T06:10:45;102482.72;;;18.56;70.55
10806;BME280;5455;53.224;6.000;2022-07-06T06:13:16;102485.84;;;18.78;70.55
10806;BME280;5455;53.224;6.000;2022-07-06T06:15:43;102480.16;;;18.97;69.01
10806;BME280;5455;53.224;6.000;2022-07-06T06:18:10;102486.13;;;18.95;68.91
10806;BME280;5455;53.224;6.000;2022-07-06T06:20:37;102491.31;;;19.23;68.11
10806;BME280;5455;53.224;6.000;2022-07-06T06:23:04;102492.75;;;19.10;65.69
10806;BME280;5455;53.224;6.000;2022-07-06T06:25:37;102498.44;;;18.91;65.80
10806;BME280;5455;53.224;6.000;2022-07-06T06:28:06;102501.66;;;18.93;66.75
10806;BME280;5455;53.224;6.000;2022-07-06T06:30:34;102504.34;;;18.86;67.04
10806;BME280;5455;53.224;6.000;2022-07-06T06:35:51;102510.25;;;18.81;68.16
10806;BME280;5455;53.224;6.000;2022-07-06T06:38:20;102514.78;;;18.66;68.02
10806;BME280;5455;53.224;6.000;2022-07-06T06:40:48;102507.22;;;18.66;69.30
10806;BME280;5455;53.224;6.000;2022-07-06T06:43:15;102512.94;;;18.74;69.36
10806;BME280;5455;53.224;6.000;2022-07-06T06:45:58;102517.28;;;18.71;68.12
10806;BME280;5455;53.224;6.000;2022-07-06T06:48:25;102531.13;;;18.64;67.10
10806;BME280;5455;53.224;6.000;2022-07-06T06:50:52;102526.13;;;18.50;67.34
10806;BME280;5455;53.224;6.000;2022-07-06T06:53:20;102517.34;;;18.52;67.23
10806;BME280;5455;53.224;6.000;2022-07-06T06:55:47;102520.63;;;18.57;66.10
10806;BME280;5455;53.224;6.000;2022-07-06T06:58:13;102519.97;;;18.45;66.79
10806;BME280;5455;53.224;6.000;2022-07-06T07:00:40;102519.81;;;18.34;66.16
10806;BME280;5455;53.224;6.000;2022-07-06T07:03:10;102523.75;;;18.52;66.04
10806;BME280;5455;53.224;6.000;2022-07-06T07:05:36;102518.59;;;18.54;65.03
10806;BME280;5455;53.224;6.000;2022-07-06T07:08:04;102523.13;;;18.62;65.54
10806;BME280;5455;53.224;6.000;2022-07-06T07:10:31;102523.19;;;18.66;65.06
10806;BME280;5455;53.224;6.000;2022-07-06T07:12:58;102521.88;;;18.83;64.64
10806;BME280;5455;53.224;6.000;2022-07-06T07:15:26;102519.28;;;19.23;63.77
10806;BME280;5455;53.224;6.000;2022-07-06T07:17:53;102528.34;;;19.39;61.54
10806;BME280;5455;53.224;6.000;2022-07-06T07:20:20;102526.28;;;19.36;60.12
10806;BME280;5455;53.224;6.000;2022-07-06T07:22:47;102523.97;;;19.42;59.15
10806;BME280;5455;53.224;6.000;2022-07-06T07:25:14;102527.44;;;19.32;58.99
10806;BME280;5455;53.224;6.000;2022-07-06T07:27:41;102518.66;;;19.07;59.17
10806;BME280;5455;53.224;6.000;2022-07-06T07:30:08;102522.81;;;19.16;60.55
10806;BME280;5455;53.224;6.000;2022-07-06T07:32:35;102522.34;;;19.41;59.58
10806;BME280;5455;53.224;6.000;2022-07-06T07:35:03;102517.03;;;19.62;58.32
10806;BME280;5455;53.224;6.000;2022-07-06T07:37:30;102519.63;;;20.11;56.59
10806;BME280;5455;53.224;6.000;2022-07-06T07:39:58;102522.84;;;20.13;57.34
10806;BME280;5455;53.224;6.000;2022-07-06T07:42:25;102524.22;;;19.93;57.66
10806;BME280;5455;53.224;6.000;2022-07-06T07:44:52;102529.34;;;19.27;60.23
10806;BME280;5455;53.224;6.000;2022-07-06T07:47:19;102531.03;;;19.06;62.33
10806;BME280;5455;53.224;6.000;2022-07-06T07:49:46;102533.59;;;19.18;63.41
10806;BME280;5455;53.224;6.000;2022-07-06T07:52:13;102530.50;;;19.49;62.56
10806;BME280;5455;53.224;6.000;2022-07-06T07:54:40;102527.28;;;19.80;60.41
10806;BME280;5455;53.224;6.000;2022-07-06T07:57:14;102525.94;;;20.01;60.67
10806;BME280;5455;53.224;6.000;2022-07-06T07:59:41;102537.81;;;20.24;59.86
10806;BME280;5455;53.224;6.000;2022-07-06T08:02:08;102536.50;;;19.81;59.15
10806;BME280;5455;53.224;6.000;2022-07-06T08:04:36;102541.59;;;19.42;59.79
10806;BME280;5455;53.224;6.000;2022-07-06T08:07:03;102536.13;;;19.26;61.20
10806;BME280;5455;53.224;6.000;2022-07-06T08:09:30;102543.72;;;19.52;61.27
10806;BME280;5455;53.224;6.000;2022-07-06T08:11:57;102541.91;;;19.97;60.35
10806;BME280;5455;53.224;6.000;2022-07-06T08:14:25;102536.03;;;20.42;58.32
10806;BME280;5455;53.224;6.000;2022-07-06T08:16:52;102532.28;;;20.71;53.20
10806;BME280;5455;53.224;6.000;2022-07-06T08:19:20;102533.59;;;20.84;54.38
10806;BME280;5455;53.224;6.000;2022-07-06T08:21:47;102540.28;;;21.17;54.60
10806;BME280;5455;53.224;6.000;2022-07-06T08:24:14;102539.50;;;21.20;52.97
10806;BME280;5455;53.224;6.000;2022-07-06T08:26:41;102548.69;;;21.17;53.03
10806;BME280;5455;53.224;6.000;2022-07-06T08:29:08;102539.88;;;21.18;52.37
10806;BME280;5455;53.224;6.000;2022-07-06T08:31:35;102527.63;;;20.89;50.50
10806;BME280;5455;53.224;6.000;2022-07-06T08:34:22;102536.41;;;20.88;51.30
10806;BME280;5455;53.224;6.000;2022-07-06T08:36:50;102538.44;;;20.87;51.16
10806;BME280;5455;53.224;6.000;2022-07-06T08:39:17;102543.44;;;21.15;50.79
10806;BME280;5455;53.224;6.000;2022-07-06T08:41:44;102539.72;;;21.01;51.61
10806;BME280;5455;53.224;6.000;2022-07-06T08:44:15;102542.72;;;21.25;52.28
10806;BME280;5455;53.224;6.000;2022-07-06T08:46:44;102537.28;;;21.54;51.54
10806;BME280;5455;53.224;6.000;2022-07-06T08:49:16;102539.91;;;21.98;48.60
10806;BME280;5455;53.224;6.000;2022-07-06T08:51:45;102544.38;;;22.13;49.19
10806;BME280;5455;53.224;6.000;2022-07-06T08:54:12;102534.56;;;21.71;48.62
10806;BME280;5455;53.224;6.000;2022-07-06T08:56:39;102536.44;;;21.46;50.64
10806;BME280;5455;53.224;6.000;2022-07-06T08:59:15;102536.34;;;21.32;53.21
10806;BME280;5455;53.224;6.000;2022-07-06T09:01:44;102531.56;;;21.36;53.56
10806;BME280;5455;53.224;6.000;2022-07-06T09:04:15;102532.34;;;21.33;53.16
10806;BME280;5455;53.224;6.000;2022-07-06T09:06:46;102543.97;;;22.07;51.77
10806;BME280;5455;53.224;6.000;2022-07-06T09:09:20;102538.41;;;22.46;49.46
10806;BME280;5455;53.224;6.000;2022-07-06T09:11:48;102550.50;;;22.75;48.80
10806;BME280;5455;53.224;6.000;2022-07-06T09:14:16;102539.66;;;22.87;48.73
10806;BME280;5455;53.224;6.000;2022-07-06T09:16:44;102557.31;;;22.52;48.40
10806;BME280;5455;53.224;6.000;2022-07-06T09:19:12;102525.47;;;21.95;49.56
10806;BME280;5455;53.224;6.000;2022-07-06T09:21:39;102543.00;;;21.75;50.15
10806;BME280;5455;53.224;6.000;2022-07-06T09:24:10;102536.00;;;21.40;50.02
10806;BME280;5455;53.224;6.000;2022-07-06T09:26:38;102543.25;;;21.41;51.95
10806;BME280;5455;53.224;6.000;2022-07-06T09:29:06;102534.06;;;21.55;51.48
10806;BME280;5455;53.224;6.000;2022-07-06T09:31:33;102543.34;;;21.59;51.03
10806;BME280;5455;53.224;6.000;2022-07-06T09:34:04;102538.50;;;21.63;51.40
10806;BME280;5455;53.224;6.000;2022-07-06T09:36:45;102539.50;;;21.92;50.45
10806;BME280;5455;53.224;6.000;2022-07-06T09:39:26;102538.75;;;22.16;48.68
10806;BME280;5455;53.224;6.000;2022-07-06T09:41:55;102540.06;;;22.65;47.01
10806;BME280;5455;53.224;6.000;2022-07-06T09:44:27;102532.41;;;22.90;46.82
10806;BME280;5455;53.224;6.000;2022-07-06T09:46:59;102525.53;;;22.41;47.26
10806;BME280;5455;53.224;6.000;2022-07-06T09:49:27;102535.97;;;22.34;45.86
10806;BME280;5455;53.224;6.000;2022-07-06T09:51:59;102533.19;;;22.51;45.80
10806;BME280;5455;53.224;6.000;2022-07-06T09:54:27;102536.06;;;22.76;45.00
10806;BME280;5455;53.224;6.000;2022-07-06T09:56:55;102528.00;;;22.71;46.09
10806;BME280;5455;53.224;6.000;2022-07-06T09:59:25;102533.63;;;22.78;47.17
10806;BME280;5455;53.224;6.000;2022-07-06T10:01:57;102528.41;;;22.80;47.04
10806;BME280;5455;53.224;6.000;2022-07-06T10:04:26;102536.47;;;22.82;47.29
10806;BME280;5455;53.224;6.000;2022-07-06T10:06:55;102537.25;;;22.86;46.96
10806;BME280;5455;53.224;6.000;2022-07-06T10:09:25;102540.47;;;22.67;46.78
10806;BME280;5455;53.224;6.000;2022-07-06T10:12:00;102541.63;;;22.48;46.55
10806;BME280;5455;53.224;6.000;2022-07-06T10:14:32;102529.97;;;22.46;46.43
10806;BME280;5455;53.224;6.000;2022-07-06T10:17:02;102531.59;;;22.47;45.84
10806;BME280;5455;53.224;6.000;2022-07-06T10:19:31;102537.59;;;22.38;45.37
10806;BME280;5455;53.224;6.000;2022-07-06T10:22:03;102532.75;;;22.25;44.89
10806;BME280;5455;53.224;6.000;2022-07-06T10:24:30;102521.09;;;22.16;45.50
10806;BME280;5455;53.224;6.000;2022-07-06T10:27:00;102516.34;;;22.59;47.44
10806;BME280;5455;53.224;6.000;2022-07-06T10:29:28;102524.00;;;22.79;47.13
10806;BME280;5455;53.224;6.000;2022-07-06T10:31:56;102506.28;;;23.00;47.09
10806;BME280;5455;53.224;6.000;2022-07-06T10:34:23;102521.13;;;23.11;47.41
10806;BME280;5455;53.224;6.000;2022-07-06T10:36:51;102521.94;;;23.08;44.70
10806;BME280;5455;53.224;6.000;2022-07-06T10:39:40;102520.38;;;22.65;46.76
10806;BME280;5455;53.224;6.000;2022-07-06T10:42:42;102520.78;;;22.74;46.93
10806;BME280;5455;53.224;6.000;2022-07-06T10:45:12;102509.09;;;22.61;45.82
10806;BME280;5455;53.224;6.000;2022-07-06T10:47:42;102501.88;;;22.85;45.05
10806;BME280;5455;53.224;6.000;2022-07-06T10:50:11;102511.13;;;23.10;44.88
10806;BME280;5455;53.224;6.000;2022-07-06T10:52:57;102503.09;;;22.91;44.71
10806;BME280;5455;53.224;6.000;2022-07-06T10:55:32;102494.66;;;22.80;46.03
10806;BME280;5455;53.224;6.000;2022-07-06T10:58:00;102499.00;;;23.17;46.09
10806;BME280;5455;53.224;6.000;2022-07-06T11:03:42;102500.81;;;23.87;45.25
10806;BME280;5455;53.224;6.000;2022-07-06T11:06:22;102495.09;;;23.97;45.09
10806;BME280;5455;53.224;6.000;2022-07-06T11:14:05;102491.41;;;24.18;43.71
10806;BME280;5455;53.224;6.000;2022-07-06T11:16:33;102484.13;;;24.17;43.76
10806;BME280;5455;53.224;6.000;2022-07-06T11:21:35;102470.38;;;24.26;43.97
10806;BME280;5455;53.224;6.000;2022-07-06T11:24:05;102470.22;;;24.47;45.02
10806;BME280;5455;53.224;6.000;2022-07-06T11:26:33;102457.84;;;24.31;43.99
10806;BME280;5455;53.224;6.000;2022-07-06T11:33:09;102459.84;;;24.82;42.97
10806;BME280;5455;53.224;6.000;2022-07-06T11:35:36;102469.88;;;25.23;41.70
10806;BME280;5455;53.224;6.000;2022-07-06T11:38:26;102477.16;;;25.21;42.28
10806;BME280;5455;53.224;6.000;2022-07-06T11:40:53;102480.72;;;25.29;40.94
10806;BME280;5455;53.224;6.000;2022-07-06T11:43:20;102479.06;;;25.68;41.69
10806;BME280;5455;53.224;6.000;2022-07-06T11:45:48;102466.59;;;25.29;40.97
10806;BME280;5455;53.224;6.000;2022-07-06T11:48:15;102468.41;;;25.46;41.76
10806;BME280;5455;53.224;6.000;2022-07-06T11:50:42;102479.44;;;25.70;40.40
10806;BME280;5455;53.224;6.000;2022-07-06T11:53:09;102469.22;;;25.80;39.82
10806;BME280;5455;53.224;6.000;2022-07-06T11:55:37;102471.84;;;25.64;40.22
10806;BME280;5455;53.224;6.000;2022-07-06T11:58:04;102470.22;;;25.63;39.64
10806;BME280;5455;53.224;6.000;2022-07-06T12:00:31;102476.44;;;25.81;39.64
10806;BME280;5455;53.224;6.000;2022-07-06T12:02:59;102475.66;;;25.47;40.01
10806;BME280;5455;53.224;6.000;2022-07-06T12:05:30;102474.19;;;25.69;38.47
10806;BME280;5455;53.224;6.000;2022-07-06T12:08:06;102459.88;;;25.83;38.46
10806;BME280;5455;53.224;6.000;2022-07-06T12:10:35;102456.25;;;26.09;38.36
10806;BME280;5455;53.224;6.000;2022-07-06T12:13:04;102460.63;;;26.64;38.08
10806;BME280;5455;53.224;6.000;2022-07-06T12:15:32;102456.63;;;26.61;37.39
10806;BME280;5455;53.224;6.000;2022-07-06T12:18:00;102454.22;;;26.60;37.46
10806;BME280;5455;53.224;6.000;2022-07-06T12:20:27;102451.59;;;26.49;36.32
10806;BME280;5455;53.224;6.000;2022-07-06T12:23:04;102453.47;;;26.33;37.14
10806;BME280;5455;53.224;6.000;2022-07-06T12:25:32;102449.44;;;26.07;37.97
10806;BME280;5455;53.224;6.000;2022-07-06T12:28:00;102445.50;;;25.70;38.03
10806;BME280;5455;53.224;6.000;2022-07-06T12:30:27;102447.81;;;25.49;37.99
10806;BME280;5455;53.224;6.000;2022-07-06T12:33:15;102445.72;;;25.56;39.06
10806;BME280;5455;53.224;6.000;2022-07-06T12:35:42;102442.84;;;25.87;37.67
10806;BME280;5455;53.224;6.000;2022-07-06T12:38:09;102446.03;;;25.62;37.32
10806;BME280;5455;53.224;6.000;2022-07-06T12:40:37;102433.88;;;25.31;37.13
10806;BME280;5455;53.224;6.000;2022-07-06T12:43:04;102438.63;;;25.07;38.55
10806;BME280;5455;53.224;6.000;2022-07-06T12:45:31;102433.00;;;25.04;38.65
10806;BME280;5455;53.224;6.000;2022-07-06T12:47:59;102432.38;;;25.23;38.20
10806;BME280;5455;53.224;6.000;2022-07-06T12:50:39;102428.97;;;25.05;38.89
10806;BME280;5455;53.224;6.000;2022-07-06T12:53:23;102425.66;;;25.10;39.16
10806;BME280;5455;53.224;6.000;2022-07-06T12:56:11;102421.06;;;25.57;38.24
10806;BME280;5455;53.224;6.000;2022-07-06T12:58:38;102419.53;;;25.52;37.77
10806;BME280;5455;53.224;6.000;2022-07-06T13:01:05;102431.03;;;25.35;38.03
10806;BME280;5455;53.224;6.000;2022-07-06T13:03:40;102416.78;;;25.42;37.81
10806;BME280;5455;53.224;6.000;2022-07-06T13:06:07;102415.66;;;25.05;38.20
10806;BME280;5455;53.224;6.000;2022-07-06T13:08:34;102409.50;;;24.73;39.19
10806;BME280;5455;53.224;6.000;2022-07-06T13:11:01;102408.56;;;24.46;39.58
10806;BME280;5455;53.224;6.000;2022-07-06T13:13:28;102408.41;;;24.16;40.14
10806;BME280;5455;53.224;6.000;2022-07-06T13:15:55;102409.19;;;24.20;41.57
10806;BME280;5455;53.224;6.000;2022-07-06T13:18:23;102403.53;;;24.23;41.85
10806;BME280;5455;53.224;6.000;2022-07-06T13:20:50;102409.06;;;24.34;42.04
10806;BME280;5455;53.224;6.000;2022-07-06T13:23:17;102402.41;;;24.58;42.42
10806;BME280;5455;53.224;6.000;2022-07-06T13:25:44;102414.09;;;24.60;42.80